createdAt,value
2022-10-12T00:02:32.729Z,26.10
2022-10-12T00:05:07.181Z,26.10
2022-10-12T00:07:41.260Z,26.10
2022-10-12T00:10:17.850Z,26.10
2022-10-12T00:12:51.903Z,26.10
2022-10-12T00:15:25.897Z,26.10
2022-10-12T00:18:00.081Z,26.10
2022-10-12T00:20:34.119Z,26.10
2022-10-12T00:23:08.140Z,26.10
2022-10-12T00:25:43.930Z,26.10
2022-10-12T00:28:18.015Z,26.10
2022-10-12T00:30:52.059Z,26.10
2022-10-12T00:33:26.309Z,26.10
2022-10-12T00:36:00.258Z,26.10
2022-10-12T00:38:34.254Z,26.10
2022-10-12T00:41:10.060Z,26.10
2022-10-12T00:43:45.339Z,26.10
2022-10-12T00:46:22.818Z,26.10
2022-10-12T00:49:10.029Z,26.20
2022-10-12T00:51:46.141Z,26.20
2022-10-12T00:54:25.033Z,26.20
2022-10-12T00:57:03.515Z,26.20
2022-10-12T00:59:44.443Z,26.20
2022-10-12T01:02:19.304Z,26.20
2022-10-12T01:04:53.774Z,26.20
2022-10-12T01:07:27.964Z,26.20
2022-10-12T01:10:01.944Z,26.20
2022-10-12T01:12:39.636Z,26.20
2022-10-12T01:15:14.713Z,26.20
2022-10-12T01:18:00.685Z,26.30
2022-10-12T01:20:47.123Z,26.30
2022-10-12T01:23:58.333Z,26.30
2022-10-12T01:27:01.683Z,26.30
2022-10-12T01:30:33.131Z,26.30
2022-10-12T01:33:15.565Z,26.30
2022-10-12T01:35:59.760Z,26.30
2022-10-12T01:38:42.127Z,26.30
2022-10-12T01:41:22.333Z,26.20
2022-10-12T01:43:56.380Z,26.30
2022-10-12T01:46:47.079Z,26.30
2022-10-12T01:49:26.037Z,26.20
2022-10-12T01:52:28.162Z,26.30
2022-10-12T01:55:16.927Z,26.30
2022-10-12T01:58:02.428Z,26.30
2022-10-12T02:00:43.862Z,26.30
2022-10-12T02:03:24.835Z,26.30
2022-10-12T02:06:02.627Z,26.30
2022-10-12T02:08:41.791Z,26.30
2022-10-12T02:11:17.796Z,26.30
2022-10-12T02:13:55.854Z,26.30
2022-10-12T02:16:33.345Z,26.30
2022-10-12T02:19:12.478Z,26.30
2022-10-12T02:21:48.520Z,26.30
2022-10-12T02:24:24.213Z,26.30
2022-10-12T02:26:58.967Z,26.30
2022-10-12T02:29:37.565Z,26.30
2022-10-12T02:32:19.918Z,26.40
2022-10-12T02:34:59.089Z,26.40
2022-10-12T02:37:39.310Z,26.40
2022-10-12T02:40:18.610Z,26.40
2022-10-12T02:43:12.794Z,26.30
2022-10-12T02:45:49.179Z,26.40
2022-10-12T02:48:25.436Z,26.40
2022-10-12T02:51:01.807Z,26.40
2022-10-12T02:53:36.096Z,26.40
2022-10-12T02:56:13.966Z,26.40
2022-10-12T02:58:49.094Z,26.40
2022-10-12T03:01:23.071Z,26.40
2022-10-12T03:03:56.957Z,26.40
2022-10-12T03:06:32.311Z,26.40
2022-10-12T03:09:06.238Z,26.40
2022-10-12T03:11:43.962Z,26.40
2022-10-12T03:14:18.301Z,26.40
2022-10-12T03:16:52.266Z,26.40
2022-10-12T03:19:26.378Z,26.40
2022-10-12T03:22:01.771Z,26.40
2022-10-12T03:24:35.645Z,26.40
2022-10-12T03:27:09.558Z,26.40
2022-10-12T03:29:43.486Z,26.40
2022-10-12T03:32:17.692Z,26.40
2022-10-12T03:34:51.599Z,26.40
2022-10-12T03:37:26.978Z,26.40
2022-10-12T03:40:00.892Z,26.40
2022-10-12T03:42:34.776Z,26.40
2022-10-12T03:45:10.031Z,26.40
2022-10-12T03:47:44.028Z,26.40
2022-10-12T03:50:18.080Z,26.40
2022-10-12T03:52:53.424Z,26.40
2022-10-12T03:55:27.358Z,26.40
2022-10-12T03:58:01.257Z,26.40
2022-10-12T04:00:35.169Z,26.40
2022-10-12T04:03:09.308Z,26.40
2022-10-12T04:05:43.235Z,26.40
2022-10-12T04:08:18.553Z,26.40
2022-10-12T04:10:52.717Z,26.40
2022-10-12T04:13:26.670Z,26.40
2022-10-12T04:16:04.301Z,26.40
2022-10-12T04:18:38.315Z,26.40
2022-10-12T04:21:15.252Z,26.40
2022-10-12T04:23:50.593Z,26.40
2022-10-12T04:26:24.504Z,26.50
2022-10-12T04:28:58.479Z,26.40
2022-10-12T04:31:32.700Z,26.40
2022-10-12T04:34:06.718Z,26.40
2022-10-12T04:36:40.783Z,26.40
2022-10-12T04:39:16.126Z,26.50
2022-10-12T04:41:50.052Z,26.40
2022-10-12T04:44:27.286Z,26.40
2022-10-12T04:47:04.087Z,26.40
2022-10-12T04:49:38.027Z,26.40
2022-10-12T04:52:11.943Z,26.40
2022-10-12T04:54:47.451Z,26.50
2022-10-12T04:57:21.353Z,26.40
2022-10-12T04:59:55.519Z,26.40
2022-10-12T05:02:29.479Z,26.50
2022-10-12T05:05:03.439Z,26.50
2022-10-12T05:07:37.684Z,26.40
2022-10-12T05:10:13.371Z,26.50
2022-10-12T05:12:47.354Z,26.40
2022-10-12T05:15:21.357Z,26.50
2022-10-12T05:17:55.230Z,26.50
2022-10-12T05:20:29.127Z,26.50
2022-10-12T05:23:03.255Z,26.50
2022-10-12T05:25:38.975Z,26.50
2022-10-12T05:28:12.888Z,26.50
2022-10-12T05:30:50.487Z,26.50
2022-10-12T05:33:24.421Z,26.40
2022-10-12T05:35:58.306Z,26.50
2022-10-12T05:38:32.288Z,26.50
2022-10-12T05:41:08.134Z,26.50
2022-10-12T05:43:42.007Z,26.50
2022-10-12T05:46:15.990Z,26.50
2022-10-12T05:48:49.904Z,26.50
2022-10-12T05:51:28.562Z,26.50
2022-10-12T05:54:03.168Z,26.50
2022-10-12T05:56:38.601Z,26.50
2022-10-12T05:59:12.886Z,26.50
2022-10-12T06:01:46.880Z,26.50
2022-10-12T06:04:20.983Z,26.50
2022-10-12T06:06:54.983Z,26.50
2022-10-12T06:09:28.876Z,26.50
2022-10-12T06:12:04.311Z,26.50
2022-10-12T06:14:38.300Z,26.50
2022-10-12T06:17:12.280Z,26.50
2022-10-12T06:19:46.254Z,26.50
2022-10-12T06:22:20.262Z,26.50
2022-10-12T06:24:54.210Z,26.50
2022-10-12T06:27:30.231Z,26.50
2022-10-12T06:30:04.886Z,26.50
2022-10-12T06:32:39.074Z,26.50
2022-10-12T06:35:13.386Z,26.50
2022-10-12T06:37:50.832Z,26.50
2022-10-12T06:40:25.119Z,26.60
2022-10-12T06:43:02.877Z,26.50
2022-10-12T06:45:37.333Z,26.60
2022-10-12T06:48:14.866Z,26.60
2022-10-12T06:50:51.555Z,26.60
2022-10-12T06:53:28.907Z,26.60
2022-10-12T06:56:07.681Z,26.60
2022-10-12T06:58:43.027Z,26.70
2022-10-12T07:01:17.456Z,26.70
2022-10-12T07:03:51.611Z,26.70
2022-10-12T07:06:25.657Z,26.70
2022-10-12T07:08:59.842Z,26.70
2022-10-12T07:11:33.812Z,26.70
2022-10-12T07:14:09.215Z,26.70
2022-10-12T07:16:43.152Z,26.70
2022-10-12T07:19:17.099Z,26.70
2022-10-12T07:21:51.011Z,26.70
2022-10-12T07:24:24.946Z,26.70
2022-10-12T07:26:58.880Z,26.70
2022-10-12T07:29:34.971Z,26.70
2022-10-12T07:32:09.411Z,26.70
2022-10-12T07:34:44.835Z,26.70
2022-10-12T07:37:18.886Z,26.70
2022-10-12T07:39:57.372Z,26.70
2022-10-12T07:42:31.547Z,26.70
2022-10-12T07:45:08.072Z,26.70
2022-10-12T07:47:42.038Z,26.70
2022-10-12T07:50:16.196Z,26.70
2022-10-12T07:52:50.447Z,26.70
2022-10-12T07:55:24.367Z,26.80
2022-10-12T07:57:58.273Z,26.80
2022-10-12T08:00:33.953Z,26.80
2022-10-12T08:03:08.079Z,26.70
2022-10-12T08:05:42.442Z,26.80
2022-10-12T08:08:16.728Z,26.80
2022-10-12T08:10:50.780Z,26.80
2022-10-12T08:13:24.834Z,26.80
2022-10-12T08:16:00.579Z,26.90
2022-10-12T08:18:35.434Z,26.90
2022-10-12T08:21:11.622Z,26.90
2022-10-12T08:23:46.371Z,26.90
2022-10-12T08:26:20.527Z,26.90
2022-10-12T08:28:54.808Z,26.90
2022-10-12T08:31:30.384Z,26.90
2022-10-12T08:34:04.728Z,27.00
2022-10-12T08:36:39.293Z,27.00
2022-10-12T08:39:13.236Z,27.00
2022-10-12T08:41:53.716Z,27.00
2022-10-12T08:44:38.517Z,27.00
2022-10-12T08:47:19.110Z,27.00
2022-10-12T08:49:54.849Z,27.00
2022-10-12T08:52:34.594Z,27.10
2022-10-12T08:55:20.726Z,27.10
2022-10-12T08:57:54.746Z,27.10
2022-10-12T09:00:31.532Z,27.20
2022-10-12T09:03:15.815Z,27.20
2022-10-12T09:05:55.824Z,27.20
2022-10-12T09:08:41.105Z,27.20
2022-10-12T09:11:28.286Z,27.20
2022-10-12T09:14:07.599Z,27.20
2022-10-12T09:16:45.124Z,27.20
2022-10-12T09:19:22.877Z,27.10
2022-10-12T09:21:58.597Z,27.10
2022-10-12T09:24:39.434Z,27.10
2022-10-12T09:27:17.024Z,27.10
2022-10-12T09:29:55.851Z,27.10
2022-10-12T09:32:49.198Z,27.10
2022-10-12T09:35:24.759Z,27.10
2022-10-12T09:37:58.812Z,27.10
2022-10-12T09:40:34.159Z,27.00
2022-10-12T09:43:10.725Z,27.10
2022-10-12T09:45:45.692Z,27.10
2022-10-12T09:48:21.440Z,27.10
2022-10-12T09:51:00.463Z,27.00
2022-10-12T09:53:37.027Z,27.00
2022-10-12T09:56:23.651Z,27.00
2022-10-12T09:59:01.838Z,27.00
2022-10-12T10:01:37.257Z,27.00
2022-10-12T10:04:18.005Z,27.00
2022-10-12T10:06:53.941Z,27.00
2022-10-12T10:09:33.008Z,27.00
2022-10-12T10:12:24.362Z,27.00
2022-10-12T10:15:00.119Z,27.00
2022-10-12T10:17:35.832Z,27.00
2022-10-12T10:20:32.367Z,27.00
2022-10-12T10:23:08.018Z,27.00
2022-10-12T10:25:42.056Z,27.00
2022-10-12T10:28:24.884Z,27.00
2022-10-12T10:31:02.967Z,27.00
2022-10-12T10:33:38.417Z,27.00
2022-10-12T10:36:22.470Z,27.00
2022-10-12T10:39:01.240Z,27.00
2022-10-12T10:41:38.576Z,26.90
2022-10-12T10:44:27.317Z,26.90
2022-10-12T10:47:04.596Z,27.00
2022-10-12T10:49:45.606Z,27.00
2022-10-12T10:52:23.822Z,27.00
2022-10-12T10:55:33.151Z,27.00
2022-10-12T10:58:14.158Z,27.00
2022-10-12T11:00:50.340Z,27.00
2022-10-12T11:03:30.455Z,27.00
2022-10-12T11:06:16.872Z,27.10
2022-10-12T11:08:57.709Z,27.10
2022-10-12T11:11:37.264Z,27.10
2022-10-12T11:14:17.753Z,27.20
2022-10-12T11:16:55.670Z,27.20
2022-10-12T11:19:36.811Z,27.20
2022-10-12T11:22:17.025Z,27.30
2022-10-12T11:24:57.707Z,27.30
2022-10-12T11:27:38.062Z,27.30
2022-10-12T11:30:16.981Z,27.30
2022-10-12T11:32:56.209Z,27.30
2022-10-12T11:35:35.430Z,27.40
2022-10-12T11:38:15.585Z,27.40
2022-10-12T11:41:09.421Z,27.40
2022-10-12T11:43:54.042Z,27.40
2022-10-12T11:46:33.678Z,27.40
2022-10-12T11:49:14.527Z,27.40
2022-10-12T11:51:50.130Z,27.30
2022-10-12T11:54:32.532Z,27.30
2022-10-12T11:57:11.882Z,27.40
2022-10-12T11:59:53.602Z,27.30
2022-10-12T12:02:31.405Z,27.40
2022-10-12T12:05:07.089Z,27.30
2022-10-12T12:07:47.626Z,27.30
2022-10-12T12:11:01.393Z,27.30
2022-10-12T12:13:35.613Z,27.30
2022-10-12T12:16:43.332Z,27.30
2022-10-12T12:19:36.273Z,27.20
2022-10-12T12:22:23.700Z,27.20
2022-10-12T12:25:20.488Z,27.20
2022-10-12T12:28:00.623Z,27.20
2022-10-12T12:30:40.304Z,27.20
2022-10-12T12:33:32.450Z,27.20
2022-10-12T12:36:09.107Z,27.20
2022-10-12T12:38:49.859Z,27.10
2022-10-12T12:41:29.318Z,27.10
2022-10-12T12:44:05.492Z,27.10
2022-10-12T12:47:44.077Z,27.10
2022-10-12T12:50:36.865Z,27.10
2022-10-12T12:53:18.575Z,27.00
2022-10-12T12:56:05.254Z,27.00
2022-10-12T12:58:58.379Z,27.00
2022-10-12T13:01:52.043Z,27.00
2022-10-12T13:04:42.938Z,26.90
2022-10-12T13:07:43.612Z,26.90
2022-10-12T13:10:31.820Z,26.90
2022-10-12T13:13:25.814Z,26.80
2022-10-12T13:16:28.667Z,26.80
2022-10-12T13:19:16.660Z,26.80
2022-10-12T13:21:55.943Z,26.80
2022-10-12T13:24:35.905Z,26.80
2022-10-12T13:27:19.221Z,26.80
2022-10-12T13:29:59.357Z,26.80
2022-10-12T13:32:42.020Z,26.80
2022-10-12T13:35:24.987Z,26.70
2022-10-12T13:38:07.280Z,26.80
2022-10-12T13:40:45.164Z,26.80
2022-10-12T13:43:21.611Z,26.80
2022-10-12T13:45:55.917Z,26.80
2022-10-12T13:48:57.618Z,26.80
2022-10-12T13:51:27.544Z,26.80
2022-10-12T13:54:01.637Z,26.80
2022-10-12T13:56:37.202Z,26.70
2022-10-12T13:59:18.850Z,26.70
2022-10-12T14:01:56.362Z,26.80
2022-10-12T14:04:32.347Z,26.80
2022-10-12T14:07:13.483Z,26.70
2022-10-12T14:09:52.960Z,26.80
2022-10-12T14:12:30.579Z,26.70
2022-10-12T14:15:06.689Z,26.70
2022-10-12T14:17:44.821Z,26.70
2022-10-12T14:20:27.968Z,26.70
2022-10-12T14:23:04.533Z,26.70
2022-10-12T14:25:39.281Z,26.70
2022-10-12T14:28:32.860Z,26.70
2022-10-12T14:31:07.510Z,26.60
2022-10-12T14:33:41.605Z,26.60
2022-10-12T14:36:24.220Z,26.60
2022-10-12T14:39:14.599Z,26.60
2022-10-12T14:41:52.740Z,26.60
2022-10-12T14:44:29.297Z,26.60
2022-10-12T14:47:06.285Z,26.60
2022-10-12T14:49:42.699Z,26.60
2022-10-12T14:52:21.801Z,26.60
2022-10-12T14:57:36.005Z,26.60
2022-10-12T15:00:15.791Z,26.60
2022-10-12T15:02:51.910Z,26.60
2022-10-12T15:05:29.070Z,26.60
2022-10-12T15:08:07.577Z,26.60
2022-10-12T15:10:41.835Z,26.60
2022-10-12T15:13:15.916Z,26.60
2022-10-12T15:15:51.889Z,26.60
2022-10-12T15:18:25.998Z,26.70
2022-10-12T15:21:00.189Z,26.60
2022-10-12T15:23:34.298Z,26.70
2022-10-12T15:26:12.481Z,26.70
2022-10-12T15:28:47.326Z,26.70
2022-10-12T15:31:23.059Z,26.70
2022-10-12T15:33:57.210Z,26.70
2022-10-12T15:36:31.220Z,26.70
2022-10-12T15:39:05.641Z,26.70
2022-10-12T15:41:39.877Z,26.60
2022-10-12T15:44:14.915Z,26.70
2022-10-12T15:46:53.111Z,26.70
2022-10-12T15:49:27.131Z,26.60
2022-10-12T15:52:02.356Z,26.70
2022-10-12T15:54:36.561Z,26.60
2022-10-12T15:57:12.528Z,26.70
2022-10-12T15:59:48.938Z,26.70
2022-10-12T16:02:25.687Z,26.70
2022-10-12T16:04:59.671Z,26.70
2022-10-12T16:07:33.695Z,26.70
2022-10-12T16:10:10.473Z,26.70
2022-10-12T16:12:45.935Z,26.70
2022-10-12T16:15:21.837Z,26.70
2022-10-12T16:17:57.868Z,26.70
2022-10-12T16:20:33.465Z,26.70
2022-10-12T16:23:10.094Z,26.70
2022-10-12T16:25:44.470Z,26.70
2022-10-12T16:28:18.823Z,26.70
2022-10-12T16:30:54.216Z,26.70
2022-10-12T16:33:30.082Z,26.70
2022-10-12T16:36:10.591Z,26.70
2022-10-12T16:38:45.431Z,26.70
2022-10-12T16:41:19.629Z,26.70
2022-10-12T16:43:56.040Z,26.70
2022-10-12T16:46:30.721Z,26.70
2022-10-12T16:49:06.344Z,26.70
2022-10-12T16:51:40.491Z,26.70
2022-10-12T16:54:14.744Z,26.70
2022-10-12T16:56:48.695Z,26.70
2022-10-12T16:59:22.893Z,26.70
2022-10-12T17:01:57.099Z,26.70
2022-10-12T17:04:32.534Z,26.70
2022-10-12T17:07:06.785Z,26.70
2022-10-12T17:09:40.936Z,26.70
2022-10-12T17:12:15.494Z,26.70
2022-10-12T17:14:49.916Z,26.70
2022-10-12T17:17:23.932Z,26.80
2022-10-12T17:19:59.396Z,26.80
2022-10-12T17:22:33.464Z,26.80
2022-10-12T17:25:08.283Z,26.80
2022-10-12T17:27:42.208Z,26.80
2022-10-12T17:30:16.250Z,26.70
2022-10-12T17:32:50.464Z,26.80
2022-10-12T17:35:25.865Z,26.80
2022-10-12T17:37:59.832Z,26.80
2022-10-12T17:40:33.752Z,26.80
2022-10-12T17:43:07.621Z,26.80
2022-10-12T17:45:41.782Z,26.80
2022-10-12T17:48:16.441Z,26.80
2022-10-12T17:50:56.378Z,26.80
2022-10-12T17:53:30.414Z,26.80
2022-10-12T17:56:05.641Z,26.80
2022-10-12T17:58:39.827Z,26.90
2022-10-12T18:01:17.015Z,26.80
2022-10-12T18:03:51.319Z,26.90
2022-10-12T18:06:26.756Z,26.90
2022-10-12T18:09:02.656Z,26.90
2022-10-12T18:11:37.826Z,26.90
2022-10-12T18:14:13.313Z,26.80
2022-10-12T18:16:47.454Z,26.90
2022-10-12T18:19:21.626Z,26.80
2022-10-12T18:21:57.257Z,26.80
2022-10-12T18:24:31.704Z,26.80
2022-10-12T18:27:06.389Z,26.80
2022-10-12T18:29:40.514Z,26.90
2022-10-12T18:32:14.761Z,26.80
2022-10-12T18:34:49.533Z,26.90
2022-10-12T18:37:25.113Z,26.90
2022-10-12T18:39:59.187Z,26.90
2022-10-12T18:42:34.205Z,26.80
2022-10-12T18:45:09.001Z,26.80
2022-10-12T18:47:43.011Z,26.90
2022-10-12T18:50:18.116Z,26.80
2022-10-12T18:52:55.333Z,26.90
2022-10-12T18:55:29.604Z,26.90
2022-10-12T18:58:03.644Z,26.90
2022-10-12T19:00:38.340Z,26.80
2022-10-12T19:03:14.418Z,26.80
2022-10-12T19:05:48.573Z,26.80
2022-10-12T19:08:23.978Z,26.80
2022-10-12T19:10:57.963Z,26.80
2022-10-12T19:13:32.095Z,26.80
2022-10-12T19:16:08.501Z,26.80
2022-10-12T19:18:43.629Z,26.80
2022-10-12T19:21:19.475Z,26.80
2022-10-12T19:23:55.169Z,26.80
2022-10-12T19:26:29.501Z,26.80
2022-10-12T19:29:03.794Z,26.80
2022-10-12T19:31:39.718Z,26.80
2022-10-12T19:34:16.238Z,26.80
2022-10-12T19:36:50.568Z,26.70
2022-10-12T19:39:26.811Z,26.80
2022-10-12T19:42:00.972Z,26.80
2022-10-12T19:44:35.217Z,26.80
2022-10-12T19:47:09.571Z,26.80
2022-10-12T19:49:45.525Z,26.70
2022-10-12T19:52:19.859Z,26.80
2022-10-12T19:54:55.500Z,26.70
2022-10-12T19:57:29.626Z,26.80
2022-10-12T20:00:03.855Z,26.70
2022-10-12T20:02:45.913Z,26.70
2022-10-12T20:05:20.048Z,26.70
2022-10-12T20:07:54.174Z,26.70
2022-10-12T20:10:29.860Z,26.70
2022-10-12T20:13:04.067Z,26.70
2022-10-12T20:15:38.642Z,26.70
2022-10-12T20:18:13.084Z,26.70
2022-10-12T20:20:47.139Z,26.70
2022-10-12T20:23:21.709Z,26.70
2022-10-12T20:25:57.583Z,26.70
2022-10-12T20:28:31.938Z,26.70
2022-10-12T20:31:08.216Z,26.70
2022-10-12T20:33:42.592Z,26.70
2022-10-12T20:36:21.543Z,26.60
2022-10-12T20:38:56.169Z,26.60
2022-10-12T20:41:31.690Z,26.60
2022-10-12T20:44:05.791Z,26.60
2022-10-12T20:46:39.773Z,26.60
2022-10-12T20:49:13.834Z,26.60
2022-10-12T20:51:47.900Z,26.60
2022-10-12T20:54:23.150Z,26.60
2022-10-12T20:56:58.541Z,26.60
2022-10-12T20:59:34.795Z,26.60
2022-10-12T21:02:10.578Z,26.60
2022-10-12T21:04:45.039Z,26.50
2022-10-12T21:07:20.369Z,26.50
2022-10-12T21:09:54.576Z,26.50
2022-10-12T21:12:30.023Z,26.50
2022-10-12T21:15:03.947Z,26.50
2022-10-12T21:17:37.949Z,26.50
2022-10-12T21:20:12.388Z,26.50
2022-10-12T21:22:46.860Z,26.50
2022-10-12T21:25:20.734Z,26.50
2022-10-12T21:27:56.100Z,26.50
2022-10-12T21:30:30.063Z,26.50
2022-10-12T21:33:03.961Z,26.50
2022-10-12T21:35:37.971Z,26.50
2022-10-12T21:38:12.111Z,26.50
2022-10-12T21:40:46.110Z,26.50
2022-10-12T21:43:21.525Z,26.50
2022-10-12T21:45:55.496Z,26.50
2022-10-12T21:48:29.608Z,26.50
2022-10-12T21:51:05.781Z,26.50
2022-10-12T21:53:40.237Z,26.50
2022-10-12T21:56:17.129Z,26.50
2022-10-12T21:58:53.321Z,26.50
2022-10-12T22:01:29.484Z,26.50
2022-10-12T22:04:05.039Z,26.50
2022-10-12T22:06:39.315Z,26.50
2022-10-12T22:09:16.918Z,26.50
2022-10-12T22:11:51.237Z,26.50
2022-10-12T22:14:26.552Z,26.50
2022-10-12T22:17:00.544Z,26.50
2022-10-12T22:19:34.667Z,26.50
2022-10-12T22:22:08.683Z,26.50
2022-10-12T22:24:42.674Z,26.50
2022-10-12T22:27:16.754Z,26.50
2022-10-12T22:29:52.094Z,26.50
2022-10-12T22:32:26.099Z,26.50
2022-10-12T22:35:00.036Z,26.50
2022-10-12T22:37:33.910Z,26.40
2022-10-12T22:40:09.294Z,26.50
2022-10-12T22:42:43.232Z,26.50
2022-10-12T22:45:22.327Z,26.40
2022-10-12T22:47:58.377Z,26.50
2022-10-12T22:50:32.324Z,26.50
2022-10-12T22:53:07.521Z,26.50
2022-10-12T22:55:41.702Z,26.40
2022-10-12T22:58:16.375Z,26.50
2022-10-12T23:00:51.788Z,26.50
2022-10-12T23:03:25.746Z,26.40
2022-10-12T23:05:59.741Z,26.40
2022-10-12T23:08:33.734Z,26.50
2022-10-12T23:11:11.118Z,26.40
2022-10-12T23:13:45.459Z,26.40
2022-10-12T23:16:23.551Z,26.40
2022-10-12T23:18:59.623Z,26.40
2022-10-12T23:21:35.455Z,26.40
2022-10-12T23:24:09.726Z,26.40
2022-10-12T23:26:43.689Z,26.40
2022-10-12T23:29:17.601Z,26.40
2022-10-12T23:31:52.910Z,26.40
2022-10-12T23:34:26.867Z,26.40
2022-10-12T23:37:01.012Z,26.40
2022-10-12T23:39:35.084Z,26.40
2022-10-12T23:42:09.283Z,26.40
2022-10-12T23:44:43.321Z,26.40
2022-10-12T23:47:18.783Z,26.40
2022-10-12T23:49:52.740Z,26.40
2022-10-12T23:52:26.724Z,26.40
2022-10-12T23:55:00.651Z,26.30
2022-10-12T23:57:46.800Z,26.30
